sensor_id;sensor_type;location;lat;lon;timestamp;temperature;humidity
35129;DHT22;21301;43.626;10.580;2022-07-29T00:00:43;27.20;99.90
35129;DHT22;21301;43.626;10.580;2022-07-29T00:03:12;27.40;99.90
35129;DHT22;21301;43.626;10.580;2022-07-29T00:05:40;27.50;99.90
35129;DHT22;21301;43.626;10.580;2022-07-29T00:08:06;27.80;99.90
35129;DHT22;21301;43.626;10.580;2022-07-29T00:10:32;27.70;99.90
35129;DHT22;21301;43.626;10.580;2022-07-29T00:12:58;27.90;99.90
35129;DHT22;21301;43.626;10.580;2022-07-29T00:15:24;27.90;99.90
35129;DHT22;21301;43.626;10.580;2022-07-29T00:17:50;28.00;99.90
35129;DHT22;21301;43.626;10.580;2022-07-29T00:20:16;28.10;99.90
35129;DHT22;21301;43.626;10.580;2022-07-29T00:22:42;28.10;99.90
35129;DHT22;21301;43.626;10.580;2022-07-29T00:25:08;28.10;99.90
35129;DHT22;21301;43.626;10.580;2022-07-29T00:27:37;28.30;99.90
35129;DHT22;21301;43.626;10.580;2022-07-29T00:30:04;28.20;99.90
35129;DHT22;21301;43.626;10.580;2022-07-29T00:32:30;28.10;99.90
35129;DHT22;21301;43.626;10.580;2022-07-29T00:34:56;28.00;99.90
35129;DHT22;21301;43.626;10.580;2022-07-29T00:37:40;27.60;99.90
35129;DHT22;21301;43.626;10.580;2022-07-29T00:40:07;27.20;99.90
35129;DHT22;21301;43.626;10.580;2022-07-29T00:42:46;27.30;99.90
35129;DHT22;21301;43.626;10.580;2022-07-29T00:45:13;27.40;99.90
35129;DHT22;21301;43.626;10.580;2022-07-29T00:47:39;27.00;99.90
35129;DHT22;21301;43.626;10.580;2022-07-29T00:50:06;26.70;99.90
35129;DHT22;21301;43.626;10.580;2022-07-29T00:52:34;26.60;99.90
35129;DHT22;21301;43.626;10.580;2022-07-29T00:55:03;26.50;99.90
35129;DHT22;21301;43.626;10.580;2022-07-29T00:57:29;26.40;99.90
35129;DHT22;21301;43.626;10.580;2022-07-29T00:59:55;26.50;99.90
35129;DHT22;21301;43.626;10.580;2022-07-29T01:02:21;26.60;99.90
35129;DHT22;21301;43.626;10.580;2022-07-29T01:04:48;26.90;99.90
35129;DHT22;21301;43.626;10.580;2022-07-29T01:07:14;27.20;99.90
35129;DHT22;21301;43.626;10.580;2022-07-29T01:09:42;27.50;99.90
35129;DHT22;21301;43.626;10.580;2022-07-29T01:12:10;27.40;99.90
35129;DHT22;21301;43.626;10.580;2022-07-29T01:14:37;27.50;99.90
35129;DHT22;21301;43.626;10.580;2022-07-29T01:17:14;27.50;99.90
35129;DHT22;21301;43.626;10.580;2022-07-29T01:30:13;28.00;99.90
35129;DHT22;21301;43.626;10.580;2022-07-29T01:32:39;28.10;99.90
35129;DHT22;21301;43.626;10.580;2022-07-29T01:35:15;28.20;99.90
35129;DHT22;21301;43.626;10.580;2022-07-29T01:37:48;28.20;99.90
35129;DHT22;21301;43.626;10.580;2022-07-29T01:42:51;28.30;99.90
35129;DHT22;21301;43.626;10.580;2022-07-29T01:45:40;28.40;99.90
35129;DHT22;21301;43.626;10.580;2022-07-29T01:48:18;28.30;99.90
35129;DHT22;21301;43.626;10.580;2022-07-29T01:50:51;27.70;99.90
35129;DHT22;21301;43.626;10.580;2022-07-29T01:53:35;27.90;99.90
35129;DHT22;21301;43.626;10.580;2022-07-29T01:56:03;27.90;99.90
35129;DHT22;21301;43.626;10.580;2022-07-29T01:58:31;27.80;99.90
35129;DHT22;21301;43.626;10.580;2022-07-29T02:00:58;27.90;99.90
35129;DHT22;21301;43.626;10.580;2022-07-29T02:03:26;27.80;99.90
35129;DHT22;21301;43.626;10.580;2022-07-29T02:05:53;27.80;99.90
35129;DHT22;21301;43.626;10.580;2022-07-29T02:08:23;27.90;99.90
35129;DHT22;21301;43.626;10.580;2022-07-29T02:10:49;28.00;99.90
35129;DHT22;21301;43.626;10.580;2022-07-29T02:13:18;28.00;99.90
35129;DHT22;21301;43.626;10.580;2022-07-29T02:15:46;28.00;99.90
35129;DHT22;21301;43.626;10.580;2022-07-29T02:18:15;28.10;99.90
35129;DHT22;21301;43.626;10.580;2022-07-29T02:20:46;28.00;99.90
35129;DHT22;21301;43.626;10.580;2022-07-29T02:23:22;28.00;99.90
35129;DHT22;21301;43.626;10.580;2022-07-29T02:25:49;27.60;99.90
35129;DHT22;21301;43.626;10.580;2022-07-29T02:28:17;26.80;99.90
35129;DHT22;21301;43.626;10.580;2022-07-29T02:30:45;27.00;99.90
35129;DHT22;21301;43.626;10.580;2022-07-29T02:33:13;26.90;99.90
35129;DHT22;21301;43.626;10.580;2022-07-29T02:35:40;27.10;99.90
35129;DHT22;21301;43.626;10.580;2022-07-29T02:38:11;27.30;99.90
35129;DHT22;21301;43.626;10.580;2022-07-29T02:40:57;27.50;99.90
35129;DHT22;21301;43.626;10.580;2022-07-29T02:43:24;27.50;99.90
35129;DHT22;21301;43.626;10.580;2022-07-29T02:45:52;27.70;99.90
35129;DHT22;21301;43.626;10.580;2022-07-29T02:48:22;27.80;99.90
35129;DHT22;21301;43.626;10.580;2022-07-29T02:50:58;27.60;99.90
35129;DHT22;21301;43.626;10.580;2022-07-29T02:53:27;27.50;99.90
35129;DHT22;21301;43.626;10.580;2022-07-29T02:55:57;27.30;99.90
35129;DHT22;21301;43.626;10.580;2022-07-29T02:58:52;27.50;99.90
35129;DHT22;21301;43.626;10.580;2022-07-29T03:01:18;27.50;99.90
35129;DHT22;21301;43.626;10.580;2022-07-29T03:03:46;27.60;99.90
35129;DHT22;21301;43.626;10.580;2022-07-29T03:06:15;27.70;99.90
35129;DHT22;21301;43.626;10.580;2022-07-29T03:08:41;27.80;99.90
35129;DHT22;21301;43.626;10.580;2022-07-29T03:11:08;27.80;99.90
35129;DHT22;21301;43.626;10.580;2022-07-29T03:13:35;27.80;99.90
35129;DHT22;21301;43.626;10.580;2022-07-29T03:16:02;27.80;99.90
35129;DHT22;21301;43.626;10.580;2022-07-29T03:18:28;27.70;99.90
35129;DHT22;21301;43.626;10.580;2022-07-29T03:20:54;27.60;99.90
35129;DHT22;21301;43.626;10.580;2022-07-29T03:23:24;27.60;99.90
35129;DHT22;21301;43.626;10.580;2022-07-29T03:25:52;27.60;99.90
35129;DHT22;21301;43.626;10.580;2022-07-29T03:28:19;27.50;99.90
35129;DHT22;21301;43.626;10.580;2022-07-29T03:30:45;27.40;99.90
35129;DHT22;21301;43.626;10.580;2022-07-29T03:33:11;27.40;99.90
35129;DHT22;21301;43.626;10.580;2022-07-29T03:35:37;27.40;99.90
35129;DHT22;21301;43.626;10.580;2022-07-29T03:38:03;27.30;99.90
35129;DHT22;21301;43.626;10.580;2022-07-29T03:40:40;27.20;99.90
35129;DHT22;21301;43.626;10.580;2022-07-29T03:43:09;27.10;99.90
35129;DHT22;21301;43.626;10.580;2022-07-29T03:45:35;26.70;99.90
35129;DHT22;21301;43.626;10.580;2022-07-29T03:48:08;26.80;99.90
35129;DHT22;21301;43.626;10.580;2022-07-29T03:50:35;26.90;99.90
35129;DHT22;21301;43.626;10.580;2022-07-29T03:53:02;27.00;99.90
35129;DHT22;21301;43.626;10.580;2022-07-29T03:55:31;27.00;99.90
35129;DHT22;21301;43.626;10.580;2022-07-29T03:57:58;26.80;99.90
35129;DHT22;21301;43.626;10.580;2022-07-29T04:00:25;26.60;99.90
35129;DHT22;21301;43.626;10.580;2022-07-29T04:02:52;26.40;99.90
35129;DHT22;21301;43.626;10.580;2022-07-29T04:05:18;26.00;99.90
35129;DHT22;21301;43.626;10.580;2022-07-29T04:07:45;25.60;99.90
35129;DHT22;21301;43.626;10.580;2022-07-29T04:10:11;25.20;99.90
35129;DHT22;21301;43.626;10.580;2022-07-29T04:12:37;24.90;99.90
35129;DHT22;21301;43.626;10.580;2022-07-29T04:15:04;24.70;99.90
35129;DHT22;21301;43.626;10.580;2022-07-29T04:17:30;24.70;99.90
35129;DHT22;21301;43.626;10.580;2022-07-29T04:19:56;24.70;99.90
35129;DHT22;21301;43.626;10.580;2022-07-29T04:22:21;24.70;99.90
35129;DHT22;21301;43.626;10.580;2022-07-29T04:24:47;25.00;99.90
35129;DHT22;21301;43.626;10.580;2022-07-29T04:27:13;24.90;99.90
35129;DHT22;21301;43.626;10.580;2022-07-29T04:29:39;24.90;99.90
35129;DHT22;21301;43.626;10.580;2022-07-29T04:32:05;25.10;99.90
35129;DHT22;21301;43.626;10.580;2022-07-29T04:34:31;25.20;99.90
35129;DHT22;21301;43.626;10.580;2022-07-29T04:36:56;25.20;99.90
35129;DHT22;21301;43.626;10.580;2022-07-29T04:39:22;25.20;99.90
35129;DHT22;21301;43.626;10.580;2022-07-29T04:41:48;24.90;99.90
35129;DHT22;21301;43.626;10.580;2022-07-29T04:44:15;24.70;99.90
35129;DHT22;21301;43.626;10.580;2022-07-29T04:46:41;24.50;99.90
35129;DHT22;21301;43.626;10.580;2022-07-29T04:49:07;24.60;99.90
35129;DHT22;21301;43.626;10.580;2022-07-29T04:51:33;24.70;99.90
35129;DHT22;21301;43.626;10.580;2022-07-29T04:53:59;25.00;99.90
35129;DHT22;21301;43.626;10.580;2022-07-29T04:56:25;25.10;99.90
35129;DHT22;21301;43.626;10.580;2022-07-29T04:58:52;25.00;99.90
35129;DHT22;21301;43.626;10.580;2022-07-29T05:01:18;25.00;99.90
35129;DHT22;21301;43.626;10.580;2022-07-29T05:03:44;25.20;99.90
35129;DHT22;21301;43.626;10.580;2022-07-29T05:06:11;25.30;99.90
35129;DHT22;21301;43.626;10.580;2022-07-29T05:08:37;25.40;99.90
35129;DHT22;21301;43.626;10.580;2022-07-29T05:11:03;25.50;99.90
35129;DHT22;21301;43.626;10.580;2022-07-29T05:13:29;25.70;99.90
35129;DHT22;21301;43.626;10.580;2022-07-29T05:15:55;25.90;99.90
35129;DHT22;21301;43.626;10.580;2022-07-29T05:18:24;26.20;99.90
35129;DHT22;21301;43.626;10.580;2022-07-29T05:20:50;26.60;99.90
35129;DHT22;21301;43.626;10.580;2022-07-29T05:23:16;26.90;99.90
35129;DHT22;21301;43.626;10.580;2022-07-29T05:25:42;27.00;99.90
35129;DHT22;21301;43.626;10.580;2022-07-29T05:28:08;26.90;99.90
35129;DHT22;21301;43.626;10.580;2022-07-29T05:30:34;26.50;99.90
35129;DHT22;21301;43.626;10.580;2022-07-29T05:32:59;26.30;99.90
35129;DHT22;21301;43.626;10.580;2022-07-29T05:35:25;26.30;99.90
35129;DHT22;21301;43.626;10.580;2022-07-29T05:37:51;26.30;99.90
35129;DHT22;21301;43.626;10.580;2022-07-29T05:40:17;26.30;99.90
35129;DHT22;21301;43.626;10.580;2022-07-29T05:42:43;26.70;99.90
35129;DHT22;21301;43.626;10.580;2022-07-29T05:45:09;27.00;99.90
35129;DHT22;21301;43.626;10.580;2022-07-29T05:47:34;27.40;99.90
35129;DHT22;21301;43.626;10.580;2022-07-29T05:50:00;27.70;99.90
35129;DHT22;21301;43.626;10.580;2022-07-29T05:52:26;27.70;99.90
35129;DHT22;21301;43.626;10.580;2022-07-29T05:54:52;27.80;99.90
35129;DHT22;21301;43.626;10.580;2022-07-29T05:57:20;28.10;99.90
35129;DHT22;21301;43.626;10.580;2022-07-29T05:59:47;28.20;99.90
35129;DHT22;21301;43.626;10.580;2022-07-29T06:02:13;28.10;99.90
35129;DHT22;21301;43.626;10.580;2022-07-29T06:04:39;28.40;99.90
35129;DHT22;21301;43.626;10.580;2022-07-29T06:07:05;28.50;99.90
35129;DHT22;21301;43.626;10.580;2022-07-29T06:09:31;28.70;99.90
35129;DHT22;21301;43.626;10.580;2022-07-29T06:11:57;28.80;99.90
35129;DHT22;21301;43.626;10.580;2022-07-29T06:14:26;28.70;99.90
35129;DHT22;21301;43.626;10.580;2022-07-29T06:16:54;28.80;99.90
35129;DHT22;21301;43.626;10.580;2022-07-29T06:19:20;29.10;99.90
35129;DHT22;21301;43.626;10.580;2022-07-29T06:21:47;29.40;99.90
35129;DHT22;21301;43.626;10.580;2022-07-29T06:24:15;29.40;99.90
35129;DHT22;21301;43.626;10.580;2022-07-29T06:26:41;29.50;99.90
35129;DHT22;21301;43.626;10.580;2022-07-29T06:29:10;29.80;99.90
35129;DHT22;21301;43.626;10.580;2022-07-29T06:31:36;30.00;99.90
35129;DHT22;21301;43.626;10.580;2022-07-29T06:34:03;30.20;99.90
35129;DHT22;21301;43.626;10.580;2022-07-29T06:36:29;30.00;99.90
35129;DHT22;21301;43.626;10.580;2022-07-29T06:38:55;30.10;99.90
35129;DHT22;21301;43.626;10.580;2022-07-29T06:41:20;30.30;99.90
35129;DHT22;21301;43.626;10.580;2022-07-29T06:43:48;30.30;99.90
35129;DHT22;21301;43.626;10.580;2022-07-29T06:46:18;30.30;99.90
35129;DHT22;21301;43.626;10.580;2022-07-29T06:48:44;30.30;99.90
35129;DHT22;21301;43.626;10.580;2022-07-29T06:51:10;30.20;99.90
35129;DHT22;21301;43.626;10.580;2022-07-29T06:53:40;30.20;99.90
35129;DHT22;21301;43.626;10.580;2022-07-29T06:56:06;30.40;99.90
35129;DHT22;21301;43.626;10.580;2022-07-29T06:58:35;30.90;99.90
35129;DHT22;21301;43.626;10.580;2022-07-29T07:01:03;31.40;99.90
35129;DHT22;21301;43.626;10.580;2022-07-29T07:03:29;31.50;99.90
35129;DHT22;21301;43.626;10.580;2022-07-29T07:05:56;31.60;99.90
35129;DHT22;21301;43.626;10.580;2022-07-29T07:08:22;31.50;99.90
35129;DHT22;21301;43.626;10.580;2022-07-29T07:10:52;31.60;99.90
35129;DHT22;21301;43.626;10.580;2022-07-29T07:13:19;31.90;99.90
35129;DHT22;21301;43.626;10.580;2022-07-29T07:15:45;32.30;99.90
35129;DHT22;21301;43.626;10.580;2022-07-29T07:18:14;32.20;99.90
35129;DHT22;21301;43.626;10.580;2022-07-29T07:20:40;31.90;99.90
35129;DHT22;21301;43.626;10.580;2022-07-29T07:23:06;32.30;99.90
35129;DHT22;21301;43.626;10.580;2022-07-29T07:25:32;32.70;99.90
35129;DHT22;21301;43.626;10.580;2022-07-29T07:27:58;33.10;99.90
35129;DHT22;21301;43.626;10.580;2022-07-29T07:30:24;33.30;99.90
35129;DHT22;21301;43.626;10.580;2022-07-29T07:32:50;33.30;99.90
35129;DHT22;21301;43.626;10.580;2022-07-29T07:35:16;33.40;99.90
35129;DHT22;21301;43.626;10.580;2022-07-29T07:37:42;33.90;99.90
35129;DHT22;21301;43.626;10.580;2022-07-29T07:40:10;33.90;99.90
35129;DHT22;21301;43.626;10.580;2022-07-29T07:42:37;33.90;99.90
35129;DHT22;21301;43.626;10.580;2022-07-29T07:45:04;33.90;99.90
35129;DHT22;21301;43.626;10.580;2022-07-29T07:47:30;33.90;99.90
35129;DHT22;21301;43.626;10.580;2022-07-29T07:49:56;33.60;99.90
35129;DHT22;21301;43.626;10.580;2022-07-29T07:52:22;33.20;99.90
35129;DHT22;21301;43.626;10.580;2022-07-29T07:54:48;34.30;99.90
35129;DHT22;21301;43.626;10.580;2022-07-29T07:57:16;34.50;99.90
35129;DHT22;21301;43.626;10.580;2022-07-29T07:59:41;34.60;99.90
35129;DHT22;21301;43.626;10.580;2022-07-29T08:02:08;34.10;99.90
35129;DHT22;21301;43.626;10.580;2022-07-29T08:04:35;34.20;99.90
35129;DHT22;21301;43.626;10.580;2022-07-29T08:07:01;34.30;99.90
35129;DHT22;21301;43.626;10.580;2022-07-29T08:09:28;33.80;99.90
35129;DHT22;21301;43.626;10.580;2022-07-29T08:11:55;34.70;99.90
35129;DHT22;21301;43.626;10.580;2022-07-29T08:14:21;34.90;99.90
35129;DHT22;21301;43.626;10.580;2022-07-29T08:16:47;35.30;99.90
35129;DHT22;21301;43.626;10.580;2022-07-29T08:19:13;35.30;99.90
35129;DHT22;21301;43.626;10.580;2022-07-29T08:21:39;34.90;99.90
35129;DHT22;21301;43.626;10.580;2022-07-29T08:24:05;34.80;99.80
35129;DHT22;21301;43.626;10.580;2022-07-29T08:26:49;35.20;99.90
35129;DHT22;21301;43.626;10.580;2022-07-29T08:29:15;34.80;99.90
35129;DHT22;21301;43.626;10.580;2022-07-29T08:31:42;35.20;99.60
35129;DHT22;21301;43.626;10.580;2022-07-29T08:34:08;34.90;99.90
35129;DHT22;21301;43.626;10.580;2022-07-29T08:36:34;35.00;99.60
35129;DHT22;21301;43.626;10.580;2022-07-29T08:39:01;35.90;99.00
35129;DHT22;21301;43.626;10.580;2022-07-29T08:41:27;36.00;98.90
35129;DHT22;21301;43.626;10.580;2022-07-29T08:43:53;35.40;99.00
35129;DHT22;21301;43.626;10.580;2022-07-29T08:46:20;36.00;98.60
35129;DHT22;21301;43.626;10.580;2022-07-29T08:48:47;36.40;98.30
35129;DHT22;21301;43.626;10.580;2022-07-29T08:54:19;36.40;97.30
35129;DHT22;21301;43.626;10.580;2022-07-29T08:56:51;36.70;97.80
35129;DHT22;21301;43.626;10.580;2022-07-29T08:59:19;36.60;97.30
35129;DHT22;21301;43.626;10.580;2022-07-29T09:01:46;37.30;97.00
35129;DHT22;21301;43.626;10.580;2022-07-29T09:04:14;37.20;96.50
35129;DHT22;21301;43.626;10.580;2022-07-29T09:06:46;37.60;96.50
35129;DHT22;21301;43.626;10.580;2022-07-29T09:09:13;37.40;95.90
35129;DHT22;21301;43.626;10.580;2022-07-29T09:11:40;36.60;96.80
35129;DHT22;21301;43.626;10.580;2022-07-29T09:14:06;36.50;96.90
35129;DHT22;21301;43.626;10.580;2022-07-29T09:16:54;36.80;96.70
35129;DHT22;21301;43.626;10.580;2022-07-29T09:19:38;36.60;96.10
35129;DHT22;21301;43.626;10.580;2022-07-29T09:22:06;37.00;96.00
35129;DHT22;21301;43.626;10.580;2022-07-29T09:26:57;37.00;96.00
35129;DHT22;21301;43.626;10.580;2022-07-29T09:29:24;37.40;95.80
35129;DHT22;21301;43.626;10.580;2022-07-29T09:31:52;36.90;95.50
35129;DHT22;21301;43.626;10.580;2022-07-29T09:34:23;36.90;95.30
35129;DHT22;21301;43.626;10.580;2022-07-29T09:36:51;37.10;94.70
35129;DHT22;21301;43.626;10.580;2022-07-29T09:41:54;37.20;94.50
35129;DHT22;21301;43.626;10.580;2022-07-29T09:44:21;37.10;94.80
35129;DHT22;21301;43.626;10.580;2022-07-29T09:47:03;36.90;94.90
35129;DHT22;21301;43.626;10.580;2022-07-29T09:49:33;37.50;94.60
35129;DHT22;21301;43.626;10.580;2022-07-29T09:52:06;37.20;94.70
35129;DHT22;21301;43.626;10.580;2022-07-29T09:54:32;37.10;94.40
35129;DHT22;21301;43.626;10.580;2022-07-29T09:57:07;37.50;94.50
35129;DHT22;21301;43.626;10.580;2022-07-29T09:59:35;37.30;93.50
35129;DHT22;21301;43.626;10.580;2022-07-29T10:02:01;37.10;94.20
35129;DHT22;21301;43.626;10.580;2022-07-29T10:04:40;36.40;94.20
35129;DHT22;21301;43.626;10.580;2022-07-29T10:07:07;36.00;94.50
35129;DHT22;21301;43.626;10.580;2022-07-29T10:09:34;36.40;94.60
35129;DHT22;21301;43.626;10.580;2022-07-29T10:14:31;36.50;93.80
35129;DHT22;21301;43.626;10.580;2022-07-29T10:16:59;36.90;93.50
35129;DHT22;21301;43.626;10.580;2022-07-29T10:19:29;36.70;93.60
35129;DHT22;21301;43.626;10.580;2022-07-29T10:21:57;37.20;93.50
35129;DHT22;21301;43.626;10.580;2022-07-29T10:24:26;37.40;93.30
35129;DHT22;21301;43.626;10.580;2022-07-29T10:26:56;37.90;93.20
35129;DHT22;21301;43.626;10.580;2022-07-29T10:29:23;37.50;92.30
35129;DHT22;21301;43.626;10.580;2022-07-29T10:31:57;36.50;92.80
35129;DHT22;21301;43.626;10.580;2022-07-29T10:34:35;35.70;92.80
35129;DHT22;21301;43.626;10.580;2022-07-29T10:37:28;35.60;93.50
35129;DHT22;21301;43.626;10.580;2022-07-29T10:43:14;35.10;94.10
35129;DHT22;21301;43.626;10.580;2022-07-29T10:45:45;35.20;94.60
35129;DHT22;21301;43.626;10.580;2022-07-29T10:48:12;34.50;94.90
35129;DHT22;21301;43.626;10.580;2022-07-29T10:51:01;34.70;95.30
35129;DHT22;21301;43.626;10.580;2022-07-29T10:53:50;34.80;95.20
35129;DHT22;21301;43.626;10.580;2022-07-29T10:56:28;34.90;95.20
35129;DHT22;21301;43.626;10.580;2022-07-29T11:10:44;35.10;95.30
35129;DHT22;21301;43.626;10.580;2022-07-29T11:13:10;35.00;95.50
35129;DHT22;21301;43.626;10.580;2022-07-29T11:15:53;34.80;95.70
35129;DHT22;21301;43.626;10.580;2022-07-29T11:18:20;34.80;96.00
35129;DHT22;21301;43.626;10.580;2022-07-29T11:20:48;34.70;96.00
35129;DHT22;21301;43.626;10.580;2022-07-29T11:23:22;34.80;95.80
35129;DHT22;21301;43.626;10.580;2022-07-29T11:31:42;34.00;96.60
35129;DHT22;21301;43.626;10.580;2022-07-29T11:34:26;34.00;96.70
35129;DHT22;21301;43.626;10.580;2022-07-29T11:45:00;34.50;95.70
35129;DHT22;21301;43.626;10.580;2022-07-29T11:47:28;34.30;96.40
35129;DHT22;21301;43.626;10.580;2022-07-29T11:49:56;34.00;96.70
35129;DHT22;21301;43.626;10.580;2022-07-29T11:52:23;33.50;97.10
35129;DHT22;21301;43.626;10.580;2022-07-29T11:54:50;33.70;97.50
35129;DHT22;21301;43.626;10.580;2022-07-29T11:57:18;33.90;96.90
35129;DHT22;21301;43.626;10.580;2022-07-29T11:59:46;34.20;96.80
35129;DHT22;21301;43.626;10.580;2022-07-29T12:05:25;34.00;96.60
35129;DHT22;21301;43.626;10.580;2022-07-29T12:07:57;34.10;96.50
35129;DHT22;21301;43.626;10.580;2022-07-29T12:10:32;34.20;96.20
35129;DHT22;21301;43.626;10.580;2022-07-29T12:12:58;34.40;95.20
35129;DHT22;21301;43.626;10.580;2022-07-29T12:15:24;34.50;95.30
35129;DHT22;21301;43.626;10.580;2022-07-29T12:17:51;34.70;95.20
35129;DHT22;21301;43.626;10.580;2022-07-29T12:20:28;34.30;95.40
35129;DHT22;21301;43.626;10.580;2022-07-29T12:22:55;34.30;95.30
35129;DHT22;21301;43.626;10.580;2022-07-29T12:25:24;34.50;95.00
35129;DHT22;21301;43.626;10.580;2022-07-29T12:28:04;34.60;95.40
35129;DHT22;21301;43.626;10.580;2022-07-29T12:30:50;34.10;95.30
35129;DHT22;21301;43.626;10.580;2022-07-29T12:33:50;34.20;94.60
35129;DHT22;21301;43.626;10.580;2022-07-29T12:36:09;33.90;94.90
35129;DHT22;21301;43.626;10.580;2022-07-29T12:38:35;33.90;95.40
35129;DHT22;21301;43.626;10.580;2022-07-29T12:41:20;34.00;95.00
35129;DHT22;21301;43.626;10.580;2022-07-29T12:43:55;33.70;95.20
35129;DHT22;21301;43.626;10.580;2022-07-29T12:46:21;33.90;94.70
35129;DHT22;21301;43.626;10.580;2022-07-29T12:48:51;34.00;94.50
35129;DHT22;21301;43.626;10.580;2022-07-29T12:51:35;34.20;94.30
35129;DHT22;21301;43.626;10.580;2022-07-29T12:54:07;34.40;94.30
35129;DHT22;21301;43.626;10.580;2022-07-29T12:56:33;34.30;94.20
35129;DHT22;21301;43.626;10.580;2022-07-29T12:58:59;34.10;94.10
35129;DHT22;21301;43.626;10.580;2022-07-29T13:01:25;34.30;94.10
35129;DHT22;21301;43.626;10.580;2022-07-29T13:03:57;34.10;94.70
35129;DHT22;21301;43.626;10.580;2022-07-29T13:12:20;34.20;93.80
35129;DHT22;21301;43.626;10.580;2022-07-29T13:14:49;34.10;93.80
35129;DHT22;21301;43.626;10.580;2022-07-29T13:17:18;34.10;93.50
35129;DHT22;21301;43.626;10.580;2022-07-29T13:19:53;34.20;92.90
35129;DHT22;21301;43.626;10.580;2022-07-29T13:22:23;33.80;92.40
35129;DHT22;21301;43.626;10.580;2022-07-29T13:24:59;33.80;92.50
35129;DHT22;21301;43.626;10.580;2022-07-29T13:27:30;33.90;92.40
35129;DHT22;21301;43.626;10.580;2022-07-29T13:29:58;33.90;93.10
35129;DHT22;21301;43.626;10.580;2022-07-29T13:32:27;33.80;92.90
35129;DHT22;21301;43.626;10.580;2022-07-29T13:34:53;33.80;92.80
35129;DHT22;21301;43.626;10.580;2022-07-29T13:37:19;33.70;92.70
35129;DHT22;21301;43.626;10.580;2022-07-29T13:39:45;33.70;92.60
35129;DHT22;21301;43.626;10.580;2022-07-29T13:42:13;34.00;92.70
35129;DHT22;21301;43.626;10.580;2022-07-29T13:44:39;34.10;92.40
35129;DHT22;21301;43.626;10.580;2022-07-29T13:47:06;34.20;90.70
35129;DHT22;21301;43.626;10.580;2022-07-29T13:49:33;34.30;90.30
35129;DHT22;21301;43.626;10.580;2022-07-29T13:51:59;34.10;91.00
35129;DHT22;21301;43.626;10.580;2022-07-29T13:54:25;33.80;91.80
35129;DHT22;21301;43.626;10.580;2022-07-29T13:57:09;33.90;92.20
35129;DHT22;21301;43.626;10.580;2022-07-29T13:59:41;33.70;92.70
35129;DHT22;21301;43.626;10.580;2022-07-29T14:02:09;33.40;92.90
35129;DHT22;21301;43.626;10.580;2022-07-29T14:04:35;33.40;92.50
35129;DHT22;21301;43.626;10.580;2022-07-29T14:07:02;33.80;92.30
35129;DHT22;21301;43.626;10.580;2022-07-29T14:09:28;33.70;92.00
35129;DHT22;21301;43.626;10.580;2022-07-29T14:11:54;33.90;92.50
35129;DHT22;21301;43.626;10.580;2022-07-29T14:14:20;34.00;92.80
35129;DHT22;21301;43.626;10.580;2022-07-29T14:16:46;33.70;92.90
35129;DHT22;21301;43.626;10.580;2022-07-29T14:19:12;33.40;92.60
35129;DHT22;21301;43.626;10.580;2022-07-29T14:21:38;33.30;92.70
35129;DHT22;21301;43.626;10.580;2022-07-29T14:24:48;33.60;92.50
35129;DHT22;21301;43.626;10.580;2022-07-29T14:27:14;33.90;91.90
35129;DHT22;21301;43.626;10.580;2022-07-29T14:29:40;34.10;92.20
35129;DHT22;21301;43.626;10.580;2022-07-29T14:32:06;33.70;92.40
35129;DHT22;21301;43.626;10.580;2022-07-29T14:34:32;33.70;92.20
35129;DHT22;21301;43.626;10.580;2022-07-29T14:36:58;33.60;92.00
35129;DHT22;21301;43.626;10.580;2022-07-29T14:39:24;33.70;91.10
35129;DHT22;21301;43.626;10.580;2022-07-29T14:41:50;33.70;91.90
35129;DHT22;21301;43.626;10.580;2022-07-29T14:44:17;33.60;92.20
35129;DHT22;21301;43.626;10.580;2022-07-29T14:46:43;33.60;92.40
35129;DHT22;21301;43.626;10.580;2022-07-29T14:49:09;33.70;92.80
35129;DHT22;21301;43.626;10.580;2022-07-29T14:51:35;33.70;92.50
35129;DHT22;21301;43.626;10.580;2022-07-29T14:54:00;33.70;92.30
35129;DHT22;21301;43.626;10.580;2022-07-29T14:56:26;33.70;92.70
35129;DHT22;21301;43.626;10.580;2022-07-29T14:58:56;33.50;92.70
35129;DHT22;21301;43.626;10.580;2022-07-29T15:01:22;33.50;93.60
35129;DHT22;21301;43.626;10.580;2022-07-29T15:03:47;33.50;93.50
35129;DHT22;21301;43.626;10.580;2022-07-29T15:06:16;33.60;93.40
35129;DHT22;21301;43.626;10.580;2022-07-29T15:08:42;33.70;93.30
35129;DHT22;21301;43.626;10.580;2022-07-29T15:11:07;33.70;93.50
35129;DHT22;21301;43.626;10.580;2022-07-29T15:13:34;33.90;93.40
35129;DHT22;21301;43.626;10.580;2022-07-29T15:16:00;33.70;93.50
35129;DHT22;21301;43.626;10.580;2022-07-29T15:18:26;33.70;93.20
35129;DHT22;21301;43.626;10.580;2022-07-29T15:20:51;33.90;93.50
35129;DHT22;21301;43.626;10.580;2022-07-29T15:23:17;33.50;93.30
35129;DHT22;21301;43.626;10.580;2022-07-29T15:25:43;33.10;92.90
35129;DHT22;21301;43.626;10.580;2022-07-29T15:28:09;33.00;93.70
35129;DHT22;21301;43.626;10.580;2022-07-29T15:30:35;33.10;93.60
35129;DHT22;21301;43.626;10.580;2022-07-29T15:33:06;32.80;93.50
35129;DHT22;21301;43.626;10.580;2022-07-29T15:35:33;32.70;93.90
35129;DHT22;21301;43.626;10.580;2022-07-29T15:37:59;32.60;93.70
35129;DHT22;21301;43.626;10.580;2022-07-29T15:40:25;32.40;93.80
35129;DHT22;21301;43.626;10.580;2022-07-29T15:43:09;32.40;93.40
35129;DHT22;21301;43.626;10.580;2022-07-29T15:45:40;32.40;93.20
35129;DHT22;21301;43.626;10.580;2022-07-29T15:48:08;32.40;93.50
35129;DHT22;21301;43.626;10.580;2022-07-29T15:50:34;32.30;94.10
35129;DHT22;21301;43.626;10.580;2022-07-29T15:53:00;32.30;94.20
35129;DHT22;21301;43.626;10.580;2022-07-29T15:55:26;32.50;95.00
35129;DHT22;21301;43.626;10.580;2022-07-29T15:57:52;32.50;94.80
35129;DHT22;21301;43.626;10.580;2022-07-29T16:00:18;32.50;95.50
35129;DHT22;21301;43.626;10.580;2022-07-29T16:02:44;32.30;96.10
35129;DHT22;21301;43.626;10.580;2022-07-29T16:05:10;32.20;95.90
35129;DHT22;21301;43.626;10.580;2022-07-29T16:07:36;32.30;95.80
35129;DHT22;21301;43.626;10.580;2022-07-29T16:10:02;32.30;96.10
35129;DHT22;21301;43.626;10.580;2022-07-29T16:12:28;32.30;96.00
35129;DHT22;21301;43.626;10.580;2022-07-29T16:14:54;32.30;95.30
35129;DHT22;21301;43.626;10.580;2022-07-29T16:17:20;32.30;95.60
35129;DHT22;21301;43.626;10.580;2022-07-29T16:19:46;32.40;95.80
35129;DHT22;21301;43.626;10.580;2022-07-29T16:22:12;32.20;95.80
35129;DHT22;21301;43.626;10.580;2022-07-29T16:24:39;32.20;95.20